Time;durP1;ratioP1;P1;durP2;ratioP2;P2;SDS_P1;SDS_P2;PMS_P1;PMS_P2;Temp;Humidity;BMP_temperature;BMP_pressure;BME280_temperature;BME280_humidity;BME280_pressure;Samples;Min_cycle;Max_cycle;Signal;HPM_P1;HPM_P2
2023/12/27 00:00:07;;;;;;;0.10;0.10;;;;;;;;;;4997481;28;20050;-86
2023/12/27 00:02:33;;;;;;;0.10;0.10;;;;;;;;;;5013363;28;20184;-84
2023/12/27 00:04:59;;;;;;;0.10;0.10;;;;;;;;;;4997356;28;20089;-86
2023/12/27 00:07:25;;;;;;;0.10;0.10;;;;;;;;;;5013600;28;20069;-86
2023/12/27 00:09:51;;;;;;;0.10;0.10;;;;;;;;;;4981039;28;20509;-87
2023/12/27 00:12:17;;;;;;;0.10;0.10;;;;;;;;;;5013474;28;20074;-86
2023/12/27 00:14:43;;;;;;;0.10;0.10;;;;;;;;;;4997814;28;20033;-87
2023/12/27 00:17:09;;;;;;;0.10;0.10;;;;;;;;;;5013347;28;20038;-86
2023/12/27 00:19:35;;;;;;;0.10;0.10;;;;;;;;;;4996981;28;20041;-87
2023/12/27 00:22:01;;;;;;;0.10;0.10;;;;;;;;;;4980784;28;20478;-87
2023/12/27 00:24:27;;;;;;;0.20;0.20;;;;;;;;;;5013271;28;20048;-87
2023/12/27 00:26:53;;;;;;;0.10;0.10;;;;;;;;;;4997193;28;20045;-87
2023/12/27 00:29:19;;;;;;;0.10;0.10;;;;;;;;;;4996889;28;20050;-87
2023/12/27 00:31:45;;;;;;;0.10;0.10;;;;;;;;;;4996898;28;20046;-87
2023/12/27 00:34:11;;;;;;;0.10;0.10;;;;;;;;;;4996908;28;20088;-87
2023/12/27 00:36:38;;;;;;;0.10;0.10;;;;;;;;;;4996645;28;20052;-87
2023/12/27 00:39:08;;;;;;;0.10;0.10;;;;;;;;;;4996773;28;20045;-86
2023/12/27 00:41:34;;;;;;;0.10;0.10;;;;;;;;;;4981029;28;20038;-87
2023/12/27 00:44:00;;;;;;;0.10;0.10;;;;;;;;;;4996558;28;20515;-86
2023/12/27 00:46:26;;;;;;;0.10;0.10;;;;;;;;;;4996528;28;20042;-86
2023/12/27 00:48:52;;;;;;;0.10;0.10;;;;;;;;;;5012766;28;20037;-86
2023/12/27 00:51:21;;;;;;;0.10;0.10;;;;;;;;;;4996688;28;20045;-86
2023/12/27 00:53:47;;;;;;;0.10;0.10;;;;;;;;;;4996538;28;20045;-86
2023/12/27 00:56:13;;;;;;;0.10;0.10;;;;;;;;;;4996472;28;20030;-86
2023/12/27 00:58:39;;;;;;;0.10;0.10;;;;;;;;;;4996338;28;20503;-86
2023/12/27 01:01:05;;;;;;;0.10;0.10;;;;;;;;;;5012216;28;20041;-86
2023/12/27 01:03:31;;;;;;;0.10;0.10;;;;;;;;;;5012591;28;20132;-86
2023/12/27 01:05:57;;;;;;;0.10;0.10;;;;;;;;;;5012523;28;20041;-87
2023/12/27 01:08:23;;;;;;;0.10;0.10;;;;;;;;;;5012448;28;20120;-86
2023/12/27 01:10:49;;;;;;;0.10;0.10;;;;;;;;;;4996207;28;20078;-87
2023/12/27 01:13:15;;;;;;;0.10;0.10;;;;;;;;;;4996430;28;20596;-86
2023/12/27 01:15:41;;;;;;;0.10;0.10;;;;;;;;;;5012332;28;20045;-86
2023/12/27 01:18:07;;;;;;;0.10;0.10;;;;;;;;;;4979892;28;20042;-86
2023/12/27 01:20:33;;;;;;;0.10;0.10;;;;;;;;;;4996082;28;20041;-86
2023/12/27 01:22:59;;;;;;;0.10;0.10;;;;;;;;;;4995955;28;20057;-86
2023/12/27 01:25:25;;;;;;;0.10;0.10;;;;;;;;;;4995971;28;20524;-85
2023/12/27 01:27:51;;;;;;;0.10;0.10;;;;;;;;;;4995767;28;20109;-86
2023/12/27 01:30:17;;;;;;;0.10;0.10;;;;;;;;;;4995777;28;20049;-86
2023/12/27 01:32:43;;;;;;;0.10;0.10;;;;;;;;;;5012054;28;20074;-87
2023/12/27 01:35:09;;;;;;;0.10;0.10;;;;;;;;;;5012018;28;20124;-86
2023/12/27 01:37:35;;;;;;;0.10;0.10;;;;;;;;;;5011924;28;20401;-85
2023/12/27 01:40:01;;;;;;;0.10;0.10;;;;;;;;;;5011871;28;20046;-86
2023/12/27 01:42:27;;;;;;;0.10;0.10;;;;;;;;;;5011785;28;20037;-87
2023/12/27 01:44:54;;;;;;;0.10;0.10;;;;;;;;;;4996026;28;20128;-86
2023/12/27 01:47:20;;;;;;;0.10;0.10;;;;;;;;;;4979684;28;20393;-86
2023/12/27 01:49:46;;;;;;;0.10;0.10;;;;;;;;;;4995495;28;20104;-85
2023/12/27 01:52:12;;;;;;;0.10;0.10;;;;;;;;;;5011697;28;20041;-86
2023/12/27 01:54:38;;;;;;;0.10;0.10;;;;;;;;;;5011652;28;20048;-85
2023/12/27 01:57:04;;;;;;;0.10;0.10;;;;;;;;;;4978609;28;20121;-86
2023/12/27 01:59:31;;;;;;;0.10;0.10;;;;;;;;;;4995371;28;20045;-86
2023/12/27 02:01:57;;;;;;;0.10;0.10;;;;;;;;;;4995151;28;20054;-86
2023/12/27 02:04:22;;;;;;;0.10;0.10;;;;;;;;;;4995034;28;20512;-85
2023/12/27 02:06:49;;;;;;;0.10;0.10;;;;;;;;;;5011643;28;20034;-86
2023/12/27 02:09:15;;;;;;;0.10;0.10;;;;;;;;;;4995108;28;20034;-86
2023/12/27 02:11:42;;;;;;;0.10;0.10;;;;;;;;;;4995409;28;20045;-86
2023/12/27 02:14:08;;;;;;;0.10;0.10;;;;;;;;;;4995110;28;20042;-86
2023/12/27 02:16:35;;;;;;;0.10;0.10;;;;;;;;;;4995038;28;20117;-84
2023/12/27 02:19:01;;;;;;;0.10;0.10;;;;;;;;;;4979033;28;20044;-85
2023/12/27 02:21:27;;;;;;;0.10;0.10;;;;;;;;;;4994939;28;20128;-86
2023/12/27 02:23:55;;;;;;;0.10;0.10;;;;;;;;;;4979167;28;20388;-85
2023/12/27 02:26:22;;;;;;;0.10;0.10;;;;;;;;;;4979027;28;20052;-86
2023/12/27 02:28:48;;;;;;;0.10;0.10;;;;;;;;;;5011121;28;20038;-85
2023/12/27 02:31:14;;;;;;;0.10;0.10;;;;;;;;;;4994869;28;20056;-85
2023/12/27 02:33:43;;;;;;;0.10;0.10;;;;;;;;;;4995051;28;20162;-85
2023/12/27 02:36:09;;;;;;;0.10;0.10;;;;;;;;;;4979003;28;20213;-86
2023/12/27 02:38:35;;;;;;;0.10;0.10;;;;;;;;;;4995162;28;20060;-86
2023/12/27 02:41:02;;;;;;;0.10;0.10;;;;;;;;;;4978462;28;20042;-85
2023/12/27 02:43:28;;;;;;;0.10;0.10;;;;;;;;;;4994930;28;20038;-85
2023/12/27 02:45:54;;;;;;;0.10;0.10;;;;;;;;;;4994941;28;20113;-85
2023/12/27 02:48:20;;;;;;;0.10;0.10;;;;;;;;;;4994814;28;20096;-86
2023/12/27 02:50:46;;;;;;;0.10;0.10;;;;;;;;;;4994712;28;20099;-87
2023/12/27 02:53:12;;;;;;;0.10;0.10;;;;;;;;;;4994761;28;20038;-86
2023/12/27 02:55:38;;;;;;;0.10;0.10;;;;;;;;;;4978384;28;20614;-86
2023/12/27 02:58:04;;;;;;;0.10;0.10;;;;;;;;;;4994609;28;20053;-86
2023/12/27 03:00:34;;;;;;;0.10;0.10;;;;;;;;;;4994651;28;20073;-86
2023/12/27 03:03:01;;;;;;;0.10;0.10;;;;;;;;;;4978799;28;20065;-86
2023/12/27 03:05:27;;;;;;;0.10;0.10;;;;;;;;;;5010913;28;20055;-86
2023/12/27 03:07:53;;;;;;;0.10;0.10;;;;;;;;;;4994539;28;20042;-85
2023/12/27 03:10:19;;;;;;;0.10;0.10;;;;;;;;;;4998128;28;20050;-85
2023/12/27 03:12:45;;;;;;;0.10;0.10;;;;;;;;;;4998462;28;20033;-85
2023/12/27 03:15:11;;;;;;;0.10;0.10;;;;;;;;;;4998329;28;20042;-85
2023/12/27 03:17:37;;;;;;;0.10;0.10;;;;;;;;;;4982420;28;20414;-85
2023/12/27 03:20:03;;;;;;;0.10;0.10;;;;;;;;;;5014332;28;20045;-86
2023/12/27 03:22:29;;;;;;;0.10;0.10;;;;;;;;;;4997981;28;20084;-85
2023/12/27 03:24:55;;;;;;;0.10;0.10;;;;;;;;;;4998031;28;20505;-85
2023/12/27 03:27:21;;;;;;;0.10;0.10;;;;;;;;;;4981657;28;20141;-86
2023/12/27 03:29:47;;;;;;;0.10;0.10;;;;;;;;;;4998064;28;20042;-86
2023/12/27 03:32:13;;;;;;;0.10;0.10;;;;;;;;;;5013658;28;20046;-85
2023/12/27 03:34:39;;;;;;;0.10;0.10;;;;;;;;;;5014065;28;20045;-86
2023/12/27 03:37:05;;;;;;;0.10;0.10;;;;;;;;;;4981564;28;20041;-86
2023/12/27 03:39:31;;;;;;;0.10;0.10;;;;;;;;;;4981608;28;20042;-86
2023/12/27 03:41:57;;;;;;;0.10;0.10;;;;;;;;;;5014139;28;20044;-86
2023/12/27 03:44:23;;;;;;;0.10;0.10;;;;;;;;;;4997934;28;20044;-86
2023/12/27 03:46:49;;;;;;;0.10;0.10;;;;;;;;;;4997787;28;20485;-86
2023/12/27 03:49:15;;;;;;;0.10;0.10;;;;;;;;;;4997583;28;20040;-86
2023/12/27 03:51:41;;;;;;;0.10;0.10;;;;;;;;;;4997468;28;20049;-88
2023/12/27 03:54:08;;;;;;;0.10;0.10;;;;;;;;;;4981331;28;20038;-86
2023/12/27 03:56:34;;;;;;;0.10;0.10;;;;;;;;;;4997627;28;20104;-86
2023/12/27 03:59:03;;;;;;;0.10;0.10;;;;;;;;;;4997449;28;20481;-85
2023/12/27 04:01:29;;;;;;;0.10;0.10;;;;;;;;;;4981457;28;20096;-86
2023/12/27 04:03:55;;;;;;;0.10;0.10;;;;;;;;;;4997531;28;20089;-85
2023/12/27 04:06:21;;;;;;;0.10;0.10;;;;;;;;;;4997479;28;20089;-86
2023/12/27 04:08:47;;;;;;;0.10;0.10;;;;;;;;;;4997330;28;20042;-85
2023/12/27 04:11:13;;;;;;;0.10;0.10;;;;;;;;;;4981071;28;20049;-86
2023/12/27 04:13:40;;;;;;;0.10;0.10;;;;;;;;;;4997308;28;20037;-87
2023/12/27 04:16:06;;;;;;;0.10;0.10;;;;;;;;;;4981448;28;20038;-86
2023/12/27 04:18:32;;;;;;;0.10;0.10;;;;;;;;;;4981339;28;20195;-85
2023/12/27 04:20:58;;;;;;;0.10;0.10;;;;;;;;;;4996590;28;20500;-86
2023/12/27 04:23:24;;;;;;;0.10;0.10;;;;;;;;;;4997367;28;20038;-86
2023/12/27 04:25:50;;;;;;;0.10;0.10;;;;;;;;;;4980900;28;20052;-85
2023/12/27 04:28:16;;;;;;;0.10;0.10;;;;;;;;;;4996943;28;20038;-86
2023/12/27 04:30:42;;;;;;;0.10;0.10;;;;;;;;;;4996915;28;20555;-86
2023/12/27 04:33:08;;;;;;;0.10;0.10;;;;;;;;;;4996910;28;20073;-86
2023/12/27 04:35:34;;;;;;;0.10;0.10;;;;;;;;;;4996743;28;20129;-86
2023/12/27 04:38:00;;;;;;;0.10;0.10;;;;;;;;;;4980722;28;20037;-87
2023/12/27 04:40:27;;;;;;;0.10;0.10;;;;;;;;;;4996795;28;20046;-86
2023/12/27 04:42:53;;;;;;;0.10;0.10;;;;;;;;;;4996539;28;20042;-86
2023/12/27 04:45:19;;;;;;;0.98;0.82;;;;;;;;;;5012934;28;20402;-86
2023/12/27 04:47:45;;;;;;;0.10;0.10;;;;;;;;;;4996559;28;20041;-88
2023/12/27 04:50:11;;;;;;;0.10;0.10;;;;;;;;;;4996756;28;20081;-85
2023/12/27 04:52:37;;;;;;;0.10;0.10;;;;;;;;;;4996598;28;20452;-85
2023/12/27 04:55:03;;;;;;;0.10;0.10;;;;;;;;;;4996567;28;20113;-86
2023/12/27 04:57:29;;;;;;;0.10;0.10;;;;;;;;;;4996826;28;20042;-85
2023/12/27 04:59:55;;;;;;;0.10;0.10;;;;;;;;;;4996385;28;20080;-86
2023/12/27 05:02:21;;;;;;;0.10;0.10;;;;;;;;;;4980431;28;20050;-90
2023/12/27 05:04:47;;;;;;;0.10;0.10;;;;;;;;;;4980439;28;20419;-85
2023/12/27 05:07:13;;;;;;;0.10;0.10;;;;;;;;;;4996276;28;20038;-86
2023/12/27 05:09:40;;;;;;;0.10;0.10;;;;;;;;;;4980265;28;20042;-85
2023/12/27 05:12:06;;;;;;;0.10;0.10;;;;;;;;;;4980136;28;20442;-86
2023/12/27 05:14:32;;;;;;;0.10;0.10;;;;;;;;;;4996375;28;20038;-85
2023/12/27 05:16:58;;;;;;;0.10;0.10;;;;;;;;;;4996129;28;20127;-86
2023/12/27 05:19:24;;;;;;;0.20;0.20;;;;;;;;;;4995976;28;20095;-85
2023/12/27 05:21:50;;;;;;;0.10;0.10;;;;;;;;;;4996176;28;20525;-86
2023/12/27 05:24:16;;;;;;;0.10;0.10;;;;;;;;;;4979680;28;20132;-86
2023/12/27 05:26:42;;;;;;;0.10;0.10;;;;;;;;;;4996005;28;20044;-84
2023/12/27 05:29:08;;;;;;;0.10;0.10;;;;;;;;;;4995803;28;20479;-85
2023/12/27 05:31:34;;;;;;;0.10;0.10;;;;;;;;;;4995349;28;20046;-86
2023/12/27 05:34:00;;;;;;;0.10;0.10;;;;;;;;;;4995790;28;20133;-85
2023/12/27 05:36:26;;;;;;;0.10;0.10;;;;;;;;;;4979586;28;20429;-86
2023/12/27 05:38:52;;;;;;;0.10;0.10;;;;;;;;;;5012048;28;20555;-86
2023/12/27 05:41:24;;;;;;;0.10;0.10;;;;;;;;;;4979413;28;20125;-85
2023/12/27 05:43:50;;;;;;;0.10;0.10;;;;;;;;;;4996525;28;20132;-85
2023/12/27 05:46:16;;;;;;;0.10;0.10;;;;;;;;;;4979590;28;20431;-86
2023/12/27 05:48:42;;;;;;;0.10;0.10;;;;;;;;;;4995556;28;20034;-85
2023/12/27 05:51:08;;;;;;;0.10;0.10;;;;;;;;;;4995454;28;20459;-85
2023/12/27 05:53:34;;;;;;;0.10;0.10;;;;;;;;;;4995680;28;20117;-84
2023/12/27 05:56:00;;;;;;;0.10;0.10;;;;;;;;;;4995446;28;20115;-84
2023/12/27 05:58:26;;;;;;;0.10;0.10;;;;;;;;;;5011670;28;20503;-85
2023/12/27 06:00:52;;;;;;;0.10;0.10;;;;;;;;;;4994959;28;20073;-85
2023/12/27 06:03:18;;;;;;;0.20;0.20;;;;;;;;;;5011549;28;20413;-84
2023/12/27 06:05:44;;;;;;;0.10;0.10;;;;;;;;;;4979121;28;20100;-85
2023/12/27 06:08:10;;;;;;;2.72;0.30;;;;;;;;;;4979048;28;20084;-84
2023/12/27 06:10:36;;;;;;;0.10;0.10;;;;;;;;;;4995227;28;20046;-85
2023/12/27 06:13:03;;;;;;;0.10;0.10;;;;;;;;;;4995394;28;20038;-85
2023/12/27 06:15:29;;;;;;;0.10;0.10;;;;;;;;;;4995155;28;20104;-85
2023/12/27 06:17:55;;;;;;;0.10;0.10;;;;;;;;;;4979001;28;20046;-88
2023/12/27 06:20:21;;;;;;;0.30;0.30;;;;;;;;;;4978831;28;20045;-85
2023/12/27 06:22:47;;;;;;;0.10;0.10;;;;;;;;;;4978918;28;20104;-85
2023/12/27 06:25:13;;;;;;;0.20;0.20;;;;;;;;;;4995047;28;20408;-85
2023/12/27 06:27:40;;;;;;;0.10;0.10;;;;;;;;;;5011200;28;20103;-84
2023/12/27 06:30:08;;;;;;;0.10;0.10;;;;;;;;;;4995025;28;20509;-85
2023/12/27 06:32:34;;;;;;;0.10;0.10;;;;;;;;;;4979282;28;20128;-86
2023/12/27 06:35:00;;;;;;;0.10;0.10;;;;;;;;;;4994979;28;20041;-86
2023/12/27 06:37:26;;;;;;;0.10;0.10;;;;;;;;;;4994909;28;20041;-85
2023/12/27 06:39:52;;;;;;;0.10;0.10;;;;;;;;;;4994733;28;20073;-85
2023/12/27 06:42:18;;;;;;;0.10;0.10;;;;;;;;;;4995318;28;20140;-85
2023/12/27 06:44:44;;;;;;;0.20;0.20;;;;;;;;;;5014537;28;20052;-84
2023/12/27 06:47:10;;;;;;;0.10;0.10;;;;;;;;;;4998923;28;20056;-85
2023/12/27 06:49:36;;;;;;;0.10;0.10;;;;;;;;;;4998870;28;20042;-85
2023/12/27 06:52:02;;;;;;;0.10;0.10;;;;;;;;;;4982591;28;20479;-85
2023/12/27 06:54:28;;;;;;;0.10;0.10;;;;;;;;;;4998762;28;20042;-87
2023/12/27 06:56:54;;;;;;;0.10;0.10;;;;;;;;;;5015066;28;20084;-88
2023/12/27 06:59:20;;;;;;;0.10;0.10;;;;;;;;;;4998524;28;20505;-87
2023/12/27 07:01:45;;;;;;;0.10;0.10;;;;;;;;;;4998454;28;20053;-88
2023/12/27 07:04:12;;;;;;;0.10;0.10;;;;;;;;;;4998672;28;20382;-86
2023/12/27 07:06:38;;;;;;;0.10;0.10;;;;;;;;;;4998877;28;20488;-85
2023/12/27 07:09:05;;;;;;;0.10;0.10;;;;;;;;;;4998694;28;20052;-86
2023/12/27 07:11:31;;;;;;;0.10;0.10;;;;;;;;;;4982194;28;20049;-86
2023/12/27 07:13:57;;;;;;;0.10;0.10;;;;;;;;;;4998349;28;20042;-85
2023/12/27 07:16:23;;;;;;;0.20;0.20;;;;;;;;;;5014700;28;20046;-87
2023/12/27 07:18:49;;;;;;;0.30;0.30;;;;;;;;;;4998682;28;20136;-86
2023/12/27 07:21:15;;;;;;;0.10;0.10;;;;;;;;;;4998203;28;20529;-86
2023/12/27 07:23:41;;;;;;;0.40;0.40;;;;;;;;;;4998236;28;20128;-87
2023/12/27 07:26:12;;;;;;;0.20;0.20;;;;;;;;;;4998241;28;20046;-87
2023/12/27 07:28:38;;;;;;;0.10;0.10;;;;;;;;;;5014591;28;20030;-87
2023/12/27 07:31:04;;;;;;;0.20;0.20;;;;;;;;;;4998051;28;20528;-87
2023/12/27 07:33:30;;;;;;;0.10;0.10;;;;;;;;;;4998150;28;20132;-87
2023/12/27 07:35:56;;;;;;;0.10;0.10;;;;;;;;;;4982204;28;20125;-86
2023/12/27 07:38:24;;;;;;;0.20;0.20;;;;;;;;;;4981824;28;20124;-87
2023/12/27 07:40:50;;;;;;;0.20;0.20;;;;;;;;;;4981601;28;20049;-86
2023/12/27 07:43:16;;;;;;;0.10;0.10;;;;;;;;;;4981743;28;20074;-89
2023/12/27 07:45:44;;;;;;;0.10;0.10;;;;;;;;;;4981845;28;20045;-85
2023/12/27 07:48:10;;;;;;;0.20;0.20;;;;;;;;;;4998070;28;20081;-86
2023/12/27 07:50:37;;;;;;;0.10;0.10;;;;;;;;;;5013854;28;20497;-87
2023/12/27 07:53:04;;;;;;;0.20;0.20;;;;;;;;;;4981675;28;20037;-86
2023/12/27 07:55:30;;;;;;;0.20;0.20;;;;;;;;;;4996891;28;20495;-87
2023/12/27 07:57:56;;;;;;;1.00;0.52;;;;;;;;;;4997643;28;20489;-86
2023/12/27 08:00:22;;;;;;;0.20;0.20;;;;;;;;;;5014141;28;20389;-86
2023/12/27 08:02:48;;;;;;;0.10;0.10;;;;;;;;;;4981194;28;20054;-85
2023/12/27 08:05:14;;;;;;;1.10;1.10;;;;;;;;;;5013775;28;20057;-85
2023/12/27 08:07:40;;;;;;;0.13;0.13;;;;;;;;;;5013783;28;20041;-85
2023/12/27 08:10:06;;;;;;;0.10;0.10;;;;;;;;;;4997287;28;20096;-87
2023/12/27 08:12:32;;;;;;;0.10;0.10;;;;;;;;;;4981160;28;20038;-86
2023/12/27 08:14:58;;;;;;;0.10;0.10;;;;;;;;;;5012323;28;20029;-86
2023/12/27 08:17:25;;;;;;;0.10;0.10;;;;;;;;;;4997934;28;20100;-86
2023/12/27 08:19:51;;;;;;;0.45;0.40;;;;;;;;;;4997112;28;20046;-87
2023/12/27 08:22:17;;;;;;;0.10;0.10;;;;;;;;;;4980838;28;20129;-84
2023/12/27 08:24:43;;;;;;;0.10;0.10;;;;;;;;;;4997081;28;20125;-86
2023/12/27 08:27:09;;;;;;;0.10;0.10;;;;;;;;;;4997139;28;20108;-86
2023/12/27 08:29:35;;;;;;;0.20;0.20;;;;;;;;;;4996821;28;20467;-85
2023/12/27 08:32:01;;;;;;;0.10;0.10;;;;;;;;;;4997027;28;20038;-87
2023/12/27 08:34:27;;;;;;;0.10;0.10;;;;;;;;;;4997011;28;20048;-88
2023/12/27 08:36:53;;;;;;;0.10;0.10;;;;;;;;;;4980856;28;20224;-87
2023/12/27 08:39:20;;;;;;;0.30;0.30;;;;;;;;;;4996822;28;20353;-87
2023/12/27 08:41:46;;;;;;;0.10;0.10;;;;;;;;;;4996805;28;20080;-87
2023/12/27 08:44:12;;;;;;;0.10;0.10;;;;;;;;;;4996785;28;20457;-87
2023/12/27 08:46:39;;;;;;;0.20;0.20;;;;;;;;;;4996768;28;20048;-88
2023/12/27 08:49:05;;;;;;;0.10;0.10;;;;;;;;;;4996613;28;20084;-87
2023/12/27 08:51:31;;;;;;;0.10;0.10;;;;;;;;;;4996594;28;20488;-87
2023/12/27 08:53:58;;;;;;;0.10;0.10;;;;;;;;;;4996470;28;20038;-87
2023/12/27 08:56:25;;;;;;;0.10;0.10;;;;;;;;;;4980539;28;20041;-88
2023/12/27 08:58:51;;;;;;;0.10;0.10;;;;;;;;;;5012962;28;20051;-86
2023/12/27 09:01:17;;;;;;;0.20;0.20;;;;;;;;;;4996149;28;20050;-89
2023/12/27 09:03:43;;;;;;;0.90;0.47;;;;;;;;;;4980379;28;20233;-86
2023/12/27 09:06:09;;;;;;;0.10;0.10;;;;;;;;;;4980115;28;20096;-87
2023/12/27 09:08:38;;;;;;;0.10;0.10;;;;;;;;;;4996406;28;20038;-86
2023/12/27 09:11:04;;;;;;;0.10;0.10;;;;;;;;;;4979930;28;20101;-87
2023/12/27 09:13:30;;;;;;;0.10;0.10;;;;;;;;;;5012691;28;20437;-86
2023/12/27 09:15:56;;;;;;;0.10;0.10;;;;;;;;;;4979985;28;20125;-86
2023/12/27 09:18:22;;;;;;;0.10;0.10;;;;;;;;;;4979873;28;20125;-86
2023/12/27 09:20:48;;;;;;;0.10;0.10;;;;;;;;;;4995810;28;20038;-86
2023/12/27 09:23:15;;;;;;;0.10;0.10;;;;;;;;;;4996053;28;20049;-86
2023/12/27 09:25:41;;;;;;;0.10;0.10;;;;;;;;;;5012535;28;20401;-86
2023/12/27 09:28:07;;;;;;;0.28;0.28;;;;;;;;;;4995666;28;20038;-86
2023/12/27 09:30:34;;;;;;;0.13;0.13;;;;;;;;;;4995133;28;20049;-87
2023/12/27 09:33:00;;;;;;;0.10;0.10;;;;;;;;;;4995815;28;20042;-86
2023/12/27 09:35:26;;;;;;;0.10;0.10;;;;;;;;;;4995561;28;20505;-86
2023/12/27 09:37:52;;;;;;;0.10;0.10;;;;;;;;;;5011941;28;20458;-87
2023/12/27 09:40:18;;;;;;;0.20;0.20;;;;;;;;;;4995262;28;20042;-87
2023/12/27 09:42:44;;;;;;;0.10;0.10;;;;;;;;;;4995658;28;20064;-88
2023/12/27 09:45:10;;;;;;;0.10;0.10;;;;;;;;;;4995396;28;20045;-87
2023/12/27 09:47:36;;;;;;;0.10;0.10;;;;;;;;;;4995046;28;20034;-86
2023/12/27 09:50:03;;;;;;;0.35;0.35;;;;;;;;;;4979125;28;20038;-86
2023/12/27 09:52:29;;;;;;;0.10;0.10;;;;;;;;;;5011747;28;20405;-86
2023/12/27 09:54:55;;;;;;;0.57;0.57;;;;;;;;;;4995512;28;20460;-86
2023/12/27 09:57:22;;;;;;;0.10;0.10;;;;;;;;;;4979230;28;20080;-86
2023/12/27 09:59:48;;;;;;;0.10;0.10;;;;;;;;;;4995409;28;20046;-87
2023/12/27 10:02:20;;;;;;;0.20;0.20;;;;;;;;;;4995088;28;20042;-88
2023/12/27 10:04:55;;;;;;;0.10;0.10;;;;;;;;;;4979558;28;20057;-89
2023/12/27 10:07:22;;;;;;;0.10;0.10;;;;;;;;;;4995389;28;20037;-89
2023/12/27 10:09:48;;;;;;;0.10;0.10;;;;;;;;;;4995355;28;20053;-88
2023/12/27 10:12:15;;;;;;;0.10;0.10;;;;;;;;;;4995419;28;20045;-88
2023/12/27 10:14:41;;;;;;;0.10;0.10;;;;;;;;;;4979115;28;20042;-88
2023/12/27 10:17:07;;;;;;;0.10;0.10;;;;;;;;;;4978412;28;20103;-89
2023/12/27 10:19:40;;;;;;;0.10;0.10;;;;;;;;;;4979067;28;20046;-87
2023/12/27 10:22:06;;;;;;;0.20;0.20;;;;;;;;;;4979043;28;20042;-93
2023/12/27 10:24:32;;;;;;;0.10;0.10;;;;;;;;;;4979637;28;20069;-93
2023/12/27 10:26:58;;;;;;;0.10;0.10;;;;;;;;;;4995491;28;20034;-89
2023/12/27 10:29:24;;;;;;;0.10;0.10;;;;;;;;;;4994678;28;20053;-88
2023/12/27 10:31:50;;;;;;;0.10;0.10;;;;;;;;;;5010787;28;20042;-87
2023/12/27 10:34:18;;;;;;;0.13;0.13;;;;;;;;;;5011090;28;20405;-88
2023/12/27 10:36:44;;;;;;;0.17;0.17;;;;;;;;;;5011233;28;20052;-87
2023/12/27 10:39:10;;;;;;;0.10;0.10;;;;;;;;;;4994869;28;20049;-88
2023/12/27 10:41:37;;;;;;;3.50;0.95;;;;;;;;;;5010998;28;20472;-89
2023/12/27 10:44:07;;;;;;;0.10;0.10;;;;;;;;;;5011049;28;20037;-88
2023/12/27 10:46:33;;;;;;;0.10;0.10;;;;;;;;;;5011162;28;20392;-88
2023/12/27 10:49:01;;;;;;;0.20;0.20;;;;;;;;;;5010872;28;20044;-88
2023/12/27 10:51:27;;;;;;;0.10;0.10;;;;;;;;;;5010895;28;20053;-88
2023/12/27 10:53:53;;;;;;;0.20;0.20;;;;;;;;;;4994963;28;20042;-88
2023/12/27 10:56:19;;;;;;;0.10;0.10;;;;;;;;;;5010866;28;20049;-88
2023/12/27 10:58:45;;;;;;;0.20;0.20;;;;;;;;;;5010764;28;20493;-87
2023/12/27 11:01:11;;;;;;;0.10;0.10;;;;;;;;;;4994037;28;20116;-88
2023/12/27 11:03:38;;;;;;;0.10;0.10;;;;;;;;;;5011014;28;20050;-87
2023/12/27 11:06:04;;;;;;;0.20;0.20;;;;;;;;;;4994463;28;20048;-87
2023/12/27 11:08:31;;;;;;;0.20;0.20;;;;;;;;;;5010809;28;20069;-88
2023/12/27 11:10:58;;;;;;;0.10;0.10;;;;;;;;;;4994379;28;20132;-88
2023/12/27 11:13:25;;;;;;;0.80;0.40;;;;;;;;;;4995042;28;20121;-89
2023/12/27 11:15:53;;;;;;;0.17;0.17;;;;;;;;;;5015508;28;20050;-90
2023/12/27 11:18:19;;;;;;;0.52;0.20;;;;;;;;;;4996856;28;20077;-90
2023/12/27 11:20:47;;;;;;;0.20;0.20;;;;;;;;;;4994565;28;20088;-88
2023/12/27 11:23:13;;;;;;;0.20;0.20;;;;;;;;;;4994176;28;20485;-88
2023/12/27 11:25:39;;;;;;;0.35;0.35;;;;;;;;;;5010501;28;20052;-89
2023/12/27 11:28:05;;;;;;;0.52;0.52;;;;;;;;;;5010403;28;20041;-89
2023/12/27 11:30:32;;;;;;;0.20;0.20;;;;;;;;;;5013247;28;20436;-88
2023/12/27 11:32:58;;;;;;;0.20;0.20;;;;;;;;;;4998017;28;20041;-89
2023/12/27 11:35:25;;;;;;;0.10;0.10;;;;;;;;;;4998261;28;20042;-90
2023/12/27 11:37:52;;;;;;;0.10;0.10;;;;;;;;;;4998328;28;20097;-88
2023/12/27 11:40:34;;;;;;;0.10;0.10;;;;;;;;;;4998139;28;20053;-90
2023/12/27 11:43:00;;;;;;;0.10;0.10;;;;;;;;;;5014098;28;20050;-87
2023/12/27 11:45:55;;;;;;;0.10;0.10;;;;;;;;;;5017206;28;20037;-94
2023/12/27 11:48:21;;;;;;;0.30;0.30;;;;;;;;;;4999855;28;20418;-87
2023/12/27 11:50:47;;;;;;;0.10;0.10;;;;;;;;;;5014001;28;20251;-88
2023/12/27 11:53:14;;;;;;;0.10;0.10;;;;;;;;;;5013262;28;20099;-88
2023/12/27 11:55:41;;;;;;;0.10;0.10;;;;;;;;;;5013803;28;20501;-88
2023/12/27 11:58:08;;;;;;;0.10;0.10;;;;;;;;;;5013742;28;20053;-89
2023/12/27 12:00:36;;;;;;;0.20;0.20;;;;;;;;;;4997406;28;20048;-89
2023/12/27 12:03:02;;;;;;;0.10;0.10;;;;;;;;;;4997533;28;20405;-89
2023/12/27 12:05:31;;;;;;;0.17;0.17;;;;;;;;;;4997542;28;20096;-89
2023/12/27 12:08:25;;;;;;;0.10;0.10;;;;;;;;;;4997807;28;20108;-89
2023/12/27 12:11:04;;;;;;;0.10;0.10;;;;;;;;;;4995687;28;20081;-89
2023/12/27 12:13:30;;;;;;;0.10;0.10;;;;;;;;;;5014005;28;20092;-88
2023/12/27 12:15:56;;;;;;;0.10;0.10;;;;;;;;;;4997404;28;20038;-90
2023/12/27 12:18:23;;;;;;;0.20;0.20;;;;;;;;;;4998203;28;20100;-89
2023/12/27 12:20:49;;;;;;;0.60;0.20;;;;;;;;;;4997890;28;20054;-90
2023/12/27 12:23:15;;;;;;;0.35;0.35;;;;;;;;;;4997655;28;20053;-89
2023/12/27 12:25:42;;;;;;;0.10;0.10;;;;;;;;;;4997426;28;20569;-89
2023/12/27 12:28:08;;;;;;;0.13;0.13;;;;;;;;;;4997073;28;20037;-90
2023/12/27 12:30:37;;;;;;;0.10;0.10;;;;;;;;;;5013302;28;20072;-89
2023/12/27 12:33:07;;;;;;;0.13;0.13;;;;;;;;;;4997125;28;20077;-89
2023/12/27 12:35:33;;;;;;;0.20;0.20;;;;;;;;;;5013455;28;20037;-89
2023/12/27 12:38:00;;;;;;;0.30;0.30;;;;;;;;;;5013630;28;20042;-89
2023/12/27 12:40:26;;;;;;;0.20;0.20;;;;;;;;;;4996441;28;20041;-89
2023/12/27 12:42:52;;;;;;;0.30;0.30;;;;;;;;;;4996933;28;20397;-89
2023/12/27 12:45:20;;;;;;;0.30;0.30;;;;;;;;;;4997066;28;20037;-89
2023/12/27 12:47:45;;;;;;;0.10;0.10;;;;;;;;;;4996802;28;20443;-89
2023/12/27 12:50:13;;;;;;;0.10;0.10;;;;;;;;;;4996669;28;20045;-92
2023/12/27 12:52:39;;;;;;;0.50;0.50;;;;;;;;;;4996431;28;20050;-88
2023/12/27 12:55:05;;;;;;;0.35;0.35;;;;;;;;;;5013068;28;20048;-88
2023/12/27 12:57:31;;;;;;;0.10;0.10;;;;;;;;;;5012617;28;20077;-88
2023/12/27 12:59:57;;;;;;;0.20;0.20;;;;;;;;;;5012726;28;20091;-89
2023/12/27 13:02:23;;;;;;;0.10;0.10;;;;;;;;;;4996318;28;20120;-88
2023/12/27 13:04:53;;;;;;;0.20;0.20;;;;;;;;;;4996475;28;20484;-90
2023/12/27 13:07:20;;;;;;;0.20;0.20;;;;;;;;;;4996363;28;20362;-90
2023/12/27 13:09:56;;;;;;;0.20;0.20;;;;;;;;;;4996398;28;20125;-90
2023/12/27 13:12:25;;;;;;;0.20;0.20;;;;;;;;;;4996509;28;20049;-89
2023/12/27 13:14:52;;;;;;;0.20;0.20;;;;;;;;;;5012681;28;20076;-90
2023/12/27 13:17:18;;;;;;;0.28;0.28;;;;;;;;;;4998839;28;20089;-91
2023/12/27 13:19:44;;;;;;;0.38;0.38;;;;;;;;;;5013188;28;20512;-91
2023/12/27 13:22:10;;;;;;;0.13;0.13;;;;;;;;;;4997494;28;20046;-92
2023/12/27 13:24:36;;;;;;;0.10;0.10;;;;;;;;;;4993930;28;20378;-91
2023/12/27 13:27:05;;;;;;;0.30;0.30;;;;;;;;;;4963645;28;20045;-93
2023/12/27 13:29:31;;;;;;;0.20;0.20;;;;;;;;;;4961868;28;20494;-89
2023/12/27 13:31:57;;;;;;;0.15;0.15;;;;;;;;;;4960793;28;20053;-89
2023/12/27 13:34:23;;;;;;;0.28;0.20;;;;;;;;;;4961041;28;20151;-88
2023/12/27 13:36:49;;;;;;;0.40;0.40;;;;;;;;;;4987042;28;20483;-90
2023/12/27 13:39:17;;;;;;;0.10;0.10;;;;;;;;;;4996098;28;20045;-90
2023/12/27 13:41:43;;;;;;;0.45;0.45;;;;;;;;;;4996354;28;20406;-89
2023/12/27 13:44:11;;;;;;;0.10;0.10;;;;;;;;;;4995903;28;20049;-90
2023/12/27 13:46:37;;;;;;;0.25;0.25;;;;;;;;;;4995884;28;20096;-89
2023/12/27 13:49:03;;;;;;;0.10;0.10;;;;;;;;;;4979477;28;20042;-89
2023/12/27 13:51:30;;;;;;;0.50;0.25;;;;;;;;;;4995549;28;20104;-88
2023/12/27 13:53:56;;;;;;;0.20;0.20;;;;;;;;;;4995169;28;20398;-89
2023/12/27 13:56:22;;;;;;;0.10;0.10;;;;;;;;;;5006454;28;20398;-90
2023/12/27 13:58:48;;;;;;;0.40;0.40;;;;;;;;;;4986464;28;20045;-90
2023/12/27 14:01:14;;;;;;;0.35;0.35;;;;;;;;;;4978409;28;20055;-90
2023/12/27 14:03:41;;;;;;;0.20;0.20;;;;;;;;;;4960259;28;20050;-90
2023/12/27 14:06:07;;;;;;;0.20;0.20;;;;;;;;;;4960085;28;20046;-89
2023/12/27 14:08:33;;;;;;;0.10;0.10;;;;;;;;;;4975806;28;20519;-90
2023/12/27 14:10:59;;;;;;;0.10;0.10;;;;;;;;;;4976113;28;20070;-89
2023/12/27 14:13:26;;;;;;;0.10;0.10;;;;;;;;;;4960416;28;20140;-89
2023/12/27 14:15:52;;;;;;;0.10;0.10;;;;;;;;;;4960014;28;20038;-89
2023/12/27 14:18:26;;;;;;;0.40;0.40;;;;;;;;;;4960243;28;20039;-92
2023/12/27 14:20:52;;;;;;;0.10;0.10;;;;;;;;;;4975842;28;20042;-87
2023/12/27 14:23:18;;;;;;;0.20;0.20;;;;;;;;;;4960095;28;20121;-88
2023/12/27 14:25:44;;;;;;;0.20;0.20;;;;;;;;;;4965422;28;20492;-88
2023/12/27 14:28:10;;;;;;;0.22;0.22;;;;;;;;;;5011165;28;20069;-89
2023/12/27 14:30:36;;;;;;;0.65;0.43;;;;;;;;;;5010963;28;20445;-88
2023/12/27 14:33:02;;;;;;;0.90;0.60;;;;;;;;;;4994850;28;20045;-87
2023/12/27 14:35:28;;;;;;;0.47;0.43;;;;;;;;;;5011173;28;20382;-88
2023/12/27 14:37:54;;;;;;;0.20;0.20;;;;;;;;;;5011244;28;20037;-88